Abbott Park, Illinois
Current Conditions -  °F | °C
As of 10:27 AM on Tuesday 21 Oct 2014 (Local Time) from KUGN Reporting Station
Overcast Overcast  
Wind Chill: 43°   Ceiling: 4500
Heat Index: 48°   Visibility: 10mi
Dew Point: 40°   Wind: 12mph
Humidity: 74%   Direction: 360°N
Pressure: 30.16"   Gusts: 17mph
Location:  42.3271°N, 87.865°W
Report Text: KUGN 211527Z 36010G15KT 10SM FEW020 OVC045 09/04 A3016 RMK AO2 T00890044
Loading
Personal Weather Stations






























Interactive Weather Map New forecast layout! Learn more

10-Day Weather Forecast

Advertisements
Track Severe Weather on mobile